createdAt,value
2023-02-23T00:00:01.603Z,981.17
2023-02-23T00:01:01.608Z,981.17
2023-02-23T00:02:01.743Z,981.19
2023-02-23T00:03:01.716Z,981.20
2023-02-23T00:04:01.527Z,981.20
2023-02-23T00:05:01.541Z,981.20
2023-02-23T00:06:01.499Z,981.21
2023-02-23T00:07:01.519Z,981.21
2023-02-23T00:08:01.474Z,981.21
2023-02-23T00:09:01.492Z,981.22
2023-02-23T00:10:01.475Z,981.22
2023-02-23T00:11:01.507Z,981.23
2023-02-23T00:12:01.442Z,981.22
2023-02-23T00:13:01.448Z,981.22
2023-02-23T00:14:01.426Z,981.22
2023-02-23T00:15:01.415Z,981.22
2023-02-23T00:16:01.396Z,981.23
2023-02-23T00:17:01.416Z,981.22
2023-02-23T00:18:01.380Z,981.22
2023-02-23T00:19:01.435Z,981.21
2023-02-23T00:20:01.373Z,981.21
2023-02-23T00:21:01.366Z,981.21
2023-02-23T00:22:01.330Z,981.21
2023-02-23T00:23:01.387Z,981.21
2023-02-23T00:24:01.319Z,981.20
2023-02-23T00:25:01.972Z,981.20
2023-02-23T00:26:01.302Z,981.22
2023-02-23T00:27:01.301Z,981.24
2023-02-23T00:28:01.276Z,981.26
2023-02-23T00:29:01.303Z,981.26
2023-02-23T00:30:01.258Z,981.25
2023-02-23T00:31:01.297Z,981.25
2023-02-23T00:32:01.326Z,981.27
2023-02-23T00:33:01.240Z,981.28
2023-02-23T00:34:01.217Z,981.29
2023-02-23T00:35:01.244Z,981.28
2023-02-23T00:36:01.195Z,981.26
2023-02-23T00:37:01.213Z,981.25
2023-02-23T00:38:01.178Z,981.25
2023-02-23T00:39:01.183Z,981.26
2023-02-23T00:40:01.183Z,981.26
2023-02-23T00:41:01.165Z,981.26
2023-02-23T00:42:01.136Z,981.26
2023-02-23T00:43:01.144Z,981.25
2023-02-23T00:44:01.136Z,981.25
2023-02-23T00:45:01.156Z,981.25
2023-02-23T00:46:01.116Z,981.26
2023-02-23T00:47:01.101Z,981.27
2023-02-23T00:48:01.077Z,981.26
2023-02-23T00:49:01.115Z,981.27
2023-02-23T00:50:01.058Z,981.27
2023-02-23T00:51:01.062Z,981.28
2023-02-23T00:52:01.041Z,981.27
2023-02-23T00:53:01.041Z,981.27
2023-02-23T00:54:01.027Z,981.26
2023-02-23T00:55:01.118Z,981.25
2023-02-23T00:56:01.001Z,981.24
2023-02-23T00:57:01.004Z,981.24
2023-02-23T00:58:00.982Z,981.24
2023-02-23T00:59:00.993Z,981.25
2023-02-23T01:00:00.959Z,981.25
2023-02-23T01:01:01.023Z,981.25
2023-02-23T01:02:01.024Z,981.26
2023-02-23T01:03:00.940Z,981.27
2023-02-23T01:04:00.922Z,981.26
2023-02-23T01:05:00.925Z,981.27
2023-02-23T01:06:00.897Z,981.26
2023-02-23T01:07:00.904Z,981.26
2023-02-23T01:08:00.899Z,981.26
2023-02-23T01:09:00.887Z,981.26
2023-02-23T01:10:00.859Z,981.26
2023-02-23T01:11:00.865Z,981.25
2023-02-23T01:12:00.834Z,981.24
2023-02-23T01:13:00.845Z,981.24
2023-02-23T01:14:00.930Z,981.23
2023-02-23T01:15:00.820Z,981.22
2023-02-23T01:16:00.810Z,981.22
2023-02-23T01:17:00.796Z,981.21
2023-02-23T01:18:00.774Z,981.20
2023-02-23T01:19:00.804Z,981.20
2023-02-23T01:20:00.775Z,981.20
2023-02-23T01:21:00.762Z,981.21
2023-02-23T01:22:00.737Z,981.21
2023-02-23T01:23:00.735Z,981.21
2023-02-23T01:24:00.763Z,981.21
2023-02-23T01:25:00.740Z,981.21
2023-02-23T01:26:00.695Z,981.21
2023-02-23T01:27:00.711Z,981.22
2023-02-23T01:28:00.674Z,981.22
2023-02-23T01:29:00.770Z,981.22
2023-02-23T01:30:00.652Z,981.20
2023-02-23T01:31:00.851Z,981.21
2023-02-23T01:32:03.249Z,981.22
2023-02-23T01:33:00.643Z,981.21
2023-02-23T01:34:00.639Z,981.20
2023-02-23T01:35:00.615Z,981.20
2023-02-23T01:36:00.593Z,981.22
2023-02-23T01:37:00.596Z,981.21
2023-02-23T01:38:00.573Z,981.21
2023-02-23T01:39:00.592Z,981.21
2023-02-23T01:40:00.588Z,981.21
2023-02-23T01:41:00.574Z,981.21
2023-02-23T01:42:00.532Z,981.21
2023-02-23T01:43:00.538Z,981.20
2023-02-23T01:44:00.515Z,981.20
2023-02-23T01:45:00.517Z,981.20
2023-02-23T01:46:00.568Z,981.20
2023-02-23T01:47:00.493Z,981.20
2023-02-23T01:48:00.472Z,981.19
2023-02-23T01:49:00.479Z,981.19
2023-02-23T01:50:00.456Z,981.19
2023-02-23T01:51:00.465Z,981.20
2023-02-23T01:52:00.458Z,981.20
2023-02-23T01:53:00.446Z,981.20
2023-02-23T01:54:00.422Z,981.19
2023-02-23T01:55:00.425Z,981.19
2023-02-23T01:56:00.396Z,981.18
2023-02-23T01:57:00.521Z,981.18
2023-02-23T01:58:00.373Z,981.18
2023-02-23T01:59:00.378Z,981.17
2023-02-23T02:00:00.364Z,981.17
2023-02-23T02:01:00.362Z,981.17
2023-02-23T02:02:00.357Z,981.16
2023-02-23T02:03:00.341Z,981.15
2023-02-23T02:04:00.311Z,981.15
2023-02-23T02:05:00.393Z,981.14
2023-02-23T02:06:00.299Z,981.14
2023-02-23T02:07:00.321Z,981.14
2023-02-23T02:08:00.277Z,981.13
2023-02-23T02:09:00.277Z,981.13
2023-02-23T02:10:00.257Z,981.14
2023-02-23T02:11:00.268Z,981.14
2023-02-23T02:12:00.240Z,981.14
2023-02-23T02:13:00.340Z,981.14
2023-02-23T02:14:00.217Z,981.15
2023-02-23T02:15:00.217Z,981.14
2023-02-23T02:16:00.288Z,981.14
2023-02-23T02:17:00.202Z,981.13
2023-02-23T02:18:00.183Z,981.13
2023-02-23T02:19:00.204Z,981.13
2023-02-23T02:20:00.179Z,981.13
2023-02-23T02:21:00.174Z,981.13
2023-02-23T02:22:00.139Z,981.14
2023-02-23T02:23:00.145Z,981.13
2023-02-23T02:24:00.142Z,981.13
2023-02-23T02:25:00.250Z,981.12
2023-02-23T02:26:00.107Z,981.12
2023-02-23T02:27:00.120Z,981.12
2023-02-23T02:28:00.086Z,981.12
2023-02-23T02:29:00.092Z,981.12
2023-02-23T02:30:00.085Z,981.12
2023-02-23T02:31:00.146Z,981.12
2023-02-23T02:32:00.195Z,981.12
2023-02-23T02:33:00.040Z,981.11
2023-02-23T02:34:00.041Z,981.10
2023-02-23T02:35:00.005Z,981.08
2023-02-23T02:36:00.014Z,981.06
2023-02-23T02:37:00.004Z,981.04
2023-02-23T02:37:59.985Z,981.02
2023-02-23T02:38:59.963Z,981.00
2023-02-23T02:39:59.992Z,980.99
2023-02-23T02:40:59.943Z,980.99
2023-02-23T02:41:59.951Z,980.98
2023-02-23T02:42:59.931Z,980.98
2023-02-23T02:43:59.945Z,980.98
2023-02-23T02:44:59.919Z,980.97
2023-02-23T02:46:00.016Z,980.97
2023-02-23T02:46:59.884Z,980.97
2023-02-23T02:47:59.912Z,980.97
2023-02-23T02:48:59.871Z,980.96
2023-02-23T02:49:59.873Z,980.96
2023-02-23T02:50:59.844Z,980.95
2023-02-23T02:51:59.850Z,980.94
2023-02-23T02:52:59.829Z,980.94
2023-02-23T02:53:59.863Z,980.93
2023-02-23T02:54:59.832Z,980.93
2023-02-23T02:55:59.828Z,980.93
2023-02-23T02:56:59.984Z,980.92
2023-02-23T02:57:59.787Z,980.91
2023-02-23T02:58:59.768Z,980.90
2023-02-23T02:59:59.792Z,980.90
2023-02-23T03:00:59.856Z,980.88
2023-02-23T03:01:59.770Z,980.87
2023-02-23T03:02:59.729Z,980.86
2023-02-23T03:03:59.737Z,980.85
2023-02-23T03:04:59.742Z,980.84
2023-02-23T03:05:59.755Z,980.84
2023-02-23T03:06:59.684Z,980.83
2023-02-23T03:07:59.693Z,980.83
2023-02-23T03:08:59.666Z,980.83
2023-02-23T03:09:59.670Z,980.83
2023-02-23T03:10:59.671Z,980.83
2023-02-23T03:11:59.659Z,980.83
2023-02-23T03:12:59.647Z,980.83
2023-02-23T03:13:59.635Z,980.83
2023-02-23T03:14:59.640Z,980.83
2023-02-23T03:15:59.651Z,980.84
2023-02-23T03:16:59.603Z,980.85
2023-02-23T03:17:59.608Z,980.86
2023-02-23T03:18:59.567Z,980.87
2023-02-23T03:19:59.569Z,980.88
2023-02-23T03:20:59.567Z,980.89
2023-02-23T03:21:59.572Z,980.91
2023-02-23T03:22:59.528Z,980.93
2023-02-23T03:24:00.227Z,980.95
2023-02-23T03:24:59.542Z,980.97
2023-02-23T03:25:59.514Z,980.97
2023-02-23T03:26:59.493Z,980.97
2023-02-23T03:27:59.519Z,980.97
2023-02-23T03:28:59.466Z,980.96
2023-02-23T03:29:59.499Z,980.96
2023-02-23T03:30:59.558Z,980.96
2023-02-23T03:31:59.522Z,980.96
2023-02-23T03:32:59.422Z,980.96
2023-02-23T03:33:59.465Z,980.95
2023-02-23T03:34:59.432Z,980.95
2023-02-23T03:35:59.414Z,980.94
2023-02-23T03:36:59.386Z,980.93
2023-02-23T03:37:59.409Z,980.92
2023-02-23T03:38:59.364Z,980.91
2023-02-23T03:39:59.390Z,980.91
2023-02-23T03:40:59.347Z,980.90
2023-02-23T03:41:59.369Z,980.90
2023-02-23T03:42:59.325Z,980.90
2023-02-23T03:43:59.330Z,980.91
2023-02-23T03:44:59.309Z,980.91
2023-02-23T03:45:59.376Z,980.92
2023-02-23T03:46:59.288Z,980.93
2023-02-23T03:47:59.300Z,980.94
2023-02-23T03:48:59.265Z,980.95
2023-02-23T03:49:59.266Z,980.96
2023-02-23T03:50:59.256Z,980.96
2023-02-23T03:51:59.266Z,980.97
2023-02-23T03:52:59.234Z,980.97
2023-02-23T03:53:59.255Z,980.98
2023-02-23T03:54:59.205Z,980.98
2023-02-23T03:55:59.249Z,980.99
2023-02-23T03:56:59.203Z,980.99
2023-02-23T03:57:59.201Z,980.99
2023-02-23T03:58:59.185Z,980.98
2023-02-23T03:59:59.169Z,980.98
2023-02-23T04:00:59.150Z,980.96
2023-02-23T04:01:59.272Z,980.96
2023-02-23T04:02:59.149Z,980.95
2023-02-23T04:03:59.129Z,980.95
2023-02-23T04:04:59.118Z,980.96
2023-02-23T04:05:59.113Z,980.96
2023-02-23T04:06:59.091Z,980.96
2023-02-23T04:07:59.107Z,980.96
2023-02-23T04:08:59.100Z,980.96
2023-02-23T04:09:59.082Z,980.97
2023-02-23T04:10:59.053Z,980.97
2023-02-23T04:11:59.064Z,980.97
2023-02-23T04:12:59.035Z,980.97
2023-02-23T04:13:59.026Z,980.97
2023-02-23T04:14:59.018Z,980.97
2023-02-23T04:15:59.009Z,980.97
2023-02-23T04:16:58.998Z,980.97
2023-02-23T04:17:58.988Z,980.96
2023-02-23T04:18:58.968Z,980.96
2023-02-23T04:19:58.971Z,980.97
2023-02-23T04:20:59.035Z,980.98
2023-02-23T04:21:58.968Z,980.98
2023-02-23T04:22:58.941Z,980.98
2023-02-23T04:23:58.966Z,980.98
2023-02-23T04:24:58.909Z,980.99
2023-02-23T04:25:58.872Z,981.00
2023-02-23T04:26:58.827Z,981.02
2023-02-23T04:27:58.828Z,981.03
2023-02-23T04:28:58.809Z,981.03
2023-02-23T04:29:58.861Z,981.04
2023-02-23T04:30:58.818Z,981.04
2023-02-23T04:31:58.852Z,981.04
2023-02-23T04:32:58.776Z,981.04
2023-02-23T04:33:58.773Z,981.05
2023-02-23T04:34:58.763Z,981.06
2023-02-23T04:35:58.786Z,981.06
2023-02-23T04:36:58.730Z,981.07
2023-02-23T04:37:58.752Z,981.08
2023-02-23T04:38:58.714Z,981.08
2023-02-23T04:39:58.716Z,981.09
2023-02-23T04:40:58.694Z,981.09
2023-02-23T04:41:58.718Z,981.09
2023-02-23T04:42:58.681Z,981.08
2023-02-23T04:43:58.732Z,981.08
2023-02-23T04:44:58.708Z,981.06
2023-02-23T04:45:58.717Z,981.06
2023-02-23T04:46:58.715Z,981.05
2023-02-23T04:47:58.719Z,981.03
2023-02-23T04:48:58.665Z,981.02
2023-02-23T04:49:58.673Z,981.01
2023-02-23T04:50:58.653Z,981.00
2023-02-23T04:51:58.666Z,981.00
2023-02-23T04:52:58.655Z,981.00
2023-02-23T04:53:58.640Z,981.00
2023-02-23T04:54:58.612Z,981.00
2023-02-23T04:55:58.614Z,981.01
2023-02-23T04:56:58.587Z,981.02
2023-02-23T04:57:58.596Z,981.03
2023-02-23T04:58:58.702Z,981.03
2023-02-23T04:59:58.585Z,981.03
2023-02-23T05:00:58.552Z,981.03
2023-02-23T05:01:58.555Z,981.02
2023-02-23T05:02:58.531Z,981.01
2023-02-23T05:03:58.534Z,981.00
2023-02-23T05:04:58.661Z,981.00
2023-02-23T05:05:58.516Z,981.00
2023-02-23T05:06:58.493Z,981.00
2023-02-23T05:07:58.501Z,981.01
2023-02-23T05:08:58.477Z,981.02
2023-02-23T05:09:58.472Z,981.01
2023-02-23T05:10:58.474Z,981.01
2023-02-23T05:11:58.453Z,981.01
2023-02-23T05:12:58.430Z,980.99
2023-02-23T05:13:58.427Z,980.99
2023-02-23T05:14:58.409Z,980.98
2023-02-23T05:15:58.473Z,980.98
2023-02-23T05:16:58.418Z,980.97
2023-02-23T05:17:58.398Z,980.98
2023-02-23T05:18:58.378Z,980.98
2023-02-23T05:19:58.375Z,980.98
2023-02-23T05:20:58.347Z,980.98
2023-02-23T05:21:58.352Z,980.99
2023-02-23T05:22:58.353Z,980.99
2023-02-23T05:23:58.329Z,981.00
2023-02-23T05:24:58.305Z,981.00
2023-02-23T05:25:58.313Z,981.00
2023-02-23T05:26:58.303Z,981.01
2023-02-23T05:27:58.335Z,981.01
2023-02-23T05:28:58.292Z,981.01
2023-02-23T05:29:58.278Z,981.01
2023-02-23T05:30:58.303Z,981.02
2023-02-23T05:31:58.355Z,981.03
2023-02-23T05:32:58.242Z,981.04
2023-02-23T05:33:58.226Z,981.05
2023-02-23T05:34:58.200Z,981.05
2023-02-23T05:35:58.206Z,981.05
2023-02-23T05:36:58.199Z,981.05
2023-02-23T05:37:58.200Z,981.04
2023-02-23T05:38:58.201Z,981.04
2023-02-23T05:39:58.169Z,981.03
2023-02-23T05:40:58.144Z,981.03
2023-02-23T05:41:58.145Z,981.03
2023-02-23T05:42:58.117Z,981.03
2023-02-23T05:43:58.118Z,981.03
2023-02-23T05:44:58.118Z,981.03
2023-02-23T05:45:58.123Z,981.03
2023-02-23T05:46:58.069Z,981.02
2023-02-23T05:47:58.072Z,981.03
2023-02-23T05:48:58.049Z,981.03
2023-02-23T05:49:58.064Z,981.04
2023-02-23T05:50:58.059Z,981.05
2023-02-23T05:51:58.164Z,981.07
2023-02-23T05:52:58.011Z,981.07
2023-02-23T05:53:58.018Z,981.08
2023-02-23T05:54:57.986Z,981.10
2023-02-23T05:55:58.019Z,981.10
2023-02-23T05:56:59.374Z,981.12
2023-02-23T05:57:57.992Z,981.13
2023-02-23T05:58:57.945Z,981.13
2023-02-23T05:59:57.956Z,981.14
2023-02-23T06:00:57.929Z,981.15
2023-02-23T06:01:57.959Z,981.14
2023-02-23T06:02:57.977Z,981.14
2023-02-23T06:03:57.985Z,981.14
2023-02-23T06:04:57.885Z,981.12
2023-02-23T06:05:57.893Z,981.12
2023-02-23T06:06:57.866Z,981.12
2023-02-23T06:07:57.893Z,981.13
2023-02-23T06:08:57.845Z,981.13
2023-02-23T06:09:57.858Z,981.13
2023-02-23T06:10:57.827Z,981.14
2023-02-23T06:11:57.836Z,981.14
2023-02-23T06:12:57.750Z,981.16
2023-02-23T06:13:57.773Z,981.17
2023-02-23T06:14:57.732Z,981.17
2023-02-23T06:15:57.812Z,981.19
2023-02-23T06:16:57.770Z,981.19
2023-02-23T06:17:57.712Z,981.20
2023-02-23T06:18:57.689Z,981.21
2023-02-23T06:19:57.713Z,981.22
2023-02-23T06:20:57.670Z,981.22
2023-02-23T06:21:57.678Z,981.24
2023-02-23T06:22:57.670Z,981.26
2023-02-23T06:23:57.659Z,981.27
2023-02-23T06:24:57.672Z,981.28
2023-02-23T06:25:57.630Z,981.28
2023-02-23T06:26:57.613Z,981.29
2023-02-23T06:27:57.610Z,981.29
2023-02-23T06:28:57.590Z,981.29
2023-02-23T06:29:57.593Z,981.29
2023-02-23T06:30:57.753Z,981.30
2023-02-23T06:32:00.654Z,981.30
2023-02-23T06:32:57.552Z,981.31
2023-02-23T06:33:57.562Z,981.32
2023-02-23T06:34:57.526Z,981.33
2023-02-23T06:35:57.545Z,981.34
2023-02-23T06:36:57.616Z,981.35
2023-02-23T06:37:57.523Z,981.37
2023-02-23T06:38:57.488Z,981.38
2023-02-23T06:39:57.491Z,981.37
2023-02-23T06:40:57.478Z,981.37
2023-02-23T06:41:57.485Z,981.37
2023-02-23T06:42:57.501Z,981.36
2023-02-23T06:43:57.471Z,981.36
2023-02-23T06:44:57.427Z,981.36
2023-02-23T06:45:57.439Z,981.36
2023-02-23T06:46:57.410Z,981.36
2023-02-23T06:47:57.442Z,981.37
2023-02-23T06:48:57.409Z,981.38
2023-02-23T06:49:57.400Z,981.39
2023-02-23T06:50:57.379Z,981.40
2023-02-23T06:51:57.377Z,981.41
2023-02-23T06:52:57.447Z,981.41
2023-02-23T06:53:57.343Z,981.42
2023-02-23T06:54:57.346Z,981.43
2023-02-23T06:55:57.337Z,981.44
2023-02-23T06:56:57.339Z,981.44
2023-02-23T06:57:57.308Z,981.44
2023-02-23T06:58:57.303Z,981.44
2023-02-23T06:59:57.277Z,981.45
2023-02-23T07:00:57.303Z,981.45
2023-02-23T07:01:57.301Z,981.45
2023-02-23T07:02:57.269Z,981.45
2023-02-23T07:03:57.268Z,981.46
2023-02-23T07:04:57.241Z,981.46
2023-02-23T07:05:57.212Z,981.47
2023-02-23T07:06:57.240Z,981.48
2023-02-23T07:07:57.216Z,981.50
2023-02-23T07:08:57.202Z,981.52
2023-02-23T07:09:57.172Z,981.54
2023-02-23T07:10:57.174Z,981.55
2023-02-23T07:11:57.147Z,981.55
2023-02-23T07:12:57.200Z,981.54
2023-02-23T07:13:57.124Z,981.53
2023-02-23T07:14:57.141Z,981.53
2023-02-23T07:15:57.156Z,981.54
2023-02-23T07:16:57.141Z,981.55
2023-02-23T07:17:57.101Z,981.57
2023-02-23T07:18:57.092Z,981.58
2023-02-23T07:19:57.091Z,981.58
2023-02-23T07:20:57.078Z,981.58
2023-02-23T07:21:57.054Z,981.57
2023-02-23T07:22:57.076Z,981.58
2023-02-23T07:23:57.027Z,981.59
2023-02-23T07:24:57.025Z,981.61
2023-02-23T07:25:57.008Z,981.62
2023-02-23T07:26:57.026Z,981.64
2023-02-23T07:27:56.988Z,981.64
2023-02-23T07:28:57.009Z,981.64
2023-02-23T07:29:56.968Z,981.65
2023-02-23T07:30:57.030Z,981.66
2023-02-23T07:31:57.093Z,981.67
2023-02-23T07:32:56.960Z,981.68
2023-02-23T07:33:56.931Z,981.68
2023-02-23T07:34:56.954Z,981.68
2023-02-23T07:35:56.913Z,981.68
2023-02-23T07:36:56.911Z,981.69
2023-02-23T07:37:56.897Z,981.69
2023-02-23T07:38:56.930Z,981.70
2023-02-23T07:39:56.916Z,981.70
2023-02-23T07:40:56.943Z,981.69
2023-02-23T07:41:57.345Z,981.69
2023-02-23T07:42:56.911Z,981.69
2023-02-23T07:43:56.826Z,981.69
2023-02-23T07:44:56.863Z,981.69
2023-02-23T07:45:56.943Z,981.69
2023-02-23T07:46:56.871Z,981.69
2023-02-23T07:47:56.829Z,981.69
2023-02-23T07:48:56.908Z,981.69
2023-02-23T07:49:56.761Z,981.70
2023-02-23T07:50:56.768Z,981.70
2023-02-23T07:51:56.750Z,981.70
2023-02-23T07:52:56.765Z,981.70
2023-02-23T07:53:56.730Z,981.71
2023-02-23T07:54:56.755Z,981.71
2023-02-23T07:55:56.716Z,981.71
2023-02-23T07:56:56.714Z,981.71
2023-02-23T07:57:56.692Z,981.71
2023-02-23T07:58:56.693Z,981.71
2023-02-23T07:59:56.672Z,981.71
2023-02-23T08:00:56.779Z,981.72
2023-02-23T08:01:56.654Z,981.72
2023-02-23T08:02:56.645Z,981.73
2023-02-23T08:03:56.694Z,981.74
2023-02-23T08:04:56.623Z,981.74
2023-02-23T08:05:56.626Z,981.75
2023-02-23T08:06:56.613Z,981.75
2023-02-23T08:07:56.585Z,981.75
2023-02-23T08:08:56.597Z,981.75
2023-02-23T08:09:56.600Z,981.75
2023-02-23T08:10:56.598Z,981.75
2023-02-23T08:11:56.581Z,981.75
2023-02-23T08:12:56.600Z,981.77
2023-02-23T08:13:56.537Z,981.78
2023-02-23T08:14:56.533Z,981.79
2023-02-23T08:15:56.504Z,981.80
2023-02-23T08:16:56.572Z,981.80
2023-02-23T08:17:56.616Z,981.80
2023-02-23T08:18:56.497Z,981.79
2023-02-23T08:19:56.475Z,981.80
2023-02-23T08:20:56.490Z,981.81
2023-02-23T08:21:56.500Z,981.82
2023-02-23T08:22:56.454Z,981.83
2023-02-23T08:23:56.547Z,981.83
2023-02-23T08:24:56.431Z,981.84
2023-02-23T08:25:56.470Z,981.85
2023-02-23T08:26:57.027Z,981.86
2023-02-23T08:27:57.191Z,981.86
2023-02-23T08:28:56.388Z,981.87
2023-02-23T08:29:56.465Z,981.87
2023-02-23T08:30:56.522Z,981.88
2023-02-23T08:31:56.610Z,981.89
2023-02-23T08:32:56.358Z,981.90
2023-02-23T08:33:56.332Z,981.90
2023-02-23T08:34:56.329Z,981.91
2023-02-23T08:35:56.330Z,981.92
2023-02-23T08:36:56.328Z,981.93
2023-02-23T08:37:56.286Z,981.93
2023-02-23T08:38:56.289Z,981.94
2023-02-23T08:39:56.271Z,981.94
2023-02-23T08:40:56.289Z,981.94
2023-02-23T08:41:56.251Z,981.94
2023-02-23T08:42:56.273Z,981.94
2023-02-23T08:43:56.233Z,981.94
2023-02-23T08:44:56.234Z,981.93
2023-02-23T08:45:56.296Z,981.92
2023-02-23T08:46:56.219Z,981.92
2023-02-23T08:47:56.196Z,981.91
2023-02-23T08:48:56.192Z,981.91
2023-02-23T08:49:56.157Z,981.91
2023-02-23T08:50:56.165Z,981.91
2023-02-23T08:51:56.150Z,981.91
2023-02-23T08:52:56.145Z,981.92
2023-02-23T08:53:56.119Z,981.92
2023-02-23T08:54:56.147Z,981.92
2023-02-23T08:55:56.110Z,981.92
2023-02-23T08:56:56.118Z,981.92
2023-02-23T08:57:56.076Z,981.91
2023-02-23T08:58:56.085Z,981.91
2023-02-23T08:59:56.073Z,981.91
2023-02-23T09:00:56.062Z,981.91
2023-02-23T09:01:56.053Z,981.92
2023-02-23T09:02:56.041Z,981.93
2023-02-23T09:03:56.015Z,981.94
2023-02-23T09:05:02.611Z,981.94
2023-02-23T09:05:55.994Z,981.94
2023-02-23T09:06:56.004Z,981.94
2023-02-23T09:07:56.006Z,981.94
2023-02-23T09:08:55.977Z,981.94
2023-02-23T09:09:55.958Z,981.95
2023-02-23T09:10:55.952Z,981.97
2023-02-23T09:11:55.933Z,981.98
2023-02-23T09:12:55.942Z,981.98
2023-02-23T09:13:55.933Z,982.00
2023-02-23T09:14:55.917Z,982.00
2023-02-23T09:15:55.927Z,982.01
2023-02-23T09:16:55.899Z,982.01
2023-02-23T09:17:55.877Z,982.01
2023-02-23T09:18:55.908Z,982.01
2023-02-23T09:19:55.872Z,982.01
2023-02-23T09:20:55.866Z,982.02
2023-02-23T09:21:55.861Z,982.03
2023-02-23T09:22:55.837Z,982.02
2023-02-23T09:23:55.815Z,982.03
2023-02-23T09:24:55.943Z,982.03
2023-02-23T09:25:55.827Z,982.04
2023-02-23T09:26:55.848Z,982.04
2023-02-23T09:27:55.858Z,982.04
2023-02-23T09:28:55.810Z,982.04
2023-02-23T09:29:55.761Z,982.05
2023-02-23T09:30:55.769Z,982.06
2023-02-23T09:31:55.821Z,982.06
2023-02-23T09:32:55.748Z,982.07
2023-02-23T09:33:55.763Z,982.08
2023-02-23T09:34:55.777Z,982.09
2023-02-23T09:35:55.698Z,982.09
2023-02-23T09:36:55.803Z,982.10
2023-02-23T09:37:55.676Z,982.10
2023-02-23T09:38:55.682Z,982.10
2023-02-23T09:39:57.902Z,982.10
2023-02-23T09:40:55.646Z,982.10
2023-02-23T09:41:55.636Z,982.12
2023-02-23T09:42:55.626Z,982.12
2023-02-23T09:43:55.613Z,982.13
2023-02-23T09:44:55.606Z,982.13
2023-02-23T09:45:55.635Z,982.13
2023-02-23T09:46:55.593Z,982.14
2023-02-23T09:47:55.584Z,982.14
2023-02-23T09:48:55.584Z,982.14
2023-02-23T09:49:55.548Z,982.15
2023-02-23T09:50:55.559Z,982.15
2023-02-23T09:51:55.681Z,982.15
2023-02-23T09:52:55.850Z,982.15
2023-02-23T09:53:55.541Z,982.15
2023-02-23T09:54:55.516Z,982.16
2023-02-23T09:55:55.511Z,982.16
2023-02-23T09:56:55.502Z,982.16
2023-02-23T09:57:55.474Z,982.16
2023-02-23T09:58:55.523Z,982.16
2023-02-23T09:59:55.453Z,982.15
2023-02-23T10:00:55.462Z,982.15
2023-02-23T10:01:55.534Z,982.15
2023-02-23T10:02:55.440Z,982.15
2023-02-23T10:03:55.408Z,982.15
2023-02-23T10:04:57.383Z,982.16
2023-02-23T10:05:55.432Z,982.16
2023-02-23T10:06:55.407Z,982.16
2023-02-23T10:07:55.376Z,982.17
2023-02-23T10:08:55.386Z,982.16
2023-02-23T10:09:55.371Z,982.17
2023-02-23T10:10:55.396Z,982.16
2023-02-23T10:11:55.335Z,982.16
2023-02-23T10:12:55.340Z,982.16
2023-02-23T10:13:55.316Z,982.17
2023-02-23T10:14:55.321Z,982.18
2023-02-23T10:15:55.324Z,982.18
2023-02-23T10:16:55.328Z,982.19
2023-02-23T10:17:55.272Z,982.19
2023-02-23T10:18:55.278Z,982.19
2023-02-23T10:19:55.255Z,982.20
2023-02-23T10:20:55.268Z,982.20
2023-02-23T10:21:55.233Z,982.19
2023-02-23T10:22:55.269Z,982.19
2023-02-23T10:23:55.210Z,982.20
2023-02-23T10:24:55.212Z,982.20
2023-02-23T10:25:55.194Z,982.19
2023-02-23T10:26:55.213Z,982.19
2023-02-23T10:27:55.176Z,982.18
2023-02-23T10:28:55.191Z,982.18
2023-02-23T10:29:55.151Z,982.18
2023-02-23T10:30:55.331Z,982.18
2023-02-23T10:31:55.232Z,982.20
2023-02-23T10:32:55.158Z,982.20
2023-02-23T10:33:55.118Z,982.20
2023-02-23T10:34:55.275Z,982.20
2023-02-23T10:36:11.190Z,982.20
2023-02-23T10:36:55.097Z,982.20
2023-02-23T10:37:55.082Z,982.20
2023-02-23T10:38:55.064Z,982.20
2023-02-23T10:39:55.054Z,982.19
2023-02-23T10:40:55.073Z,982.19
2023-02-23T10:41:55.030Z,982.19
2023-02-23T10:42:55.044Z,982.19
2023-02-23T10:43:55.956Z,982.19
2023-02-23T10:44:55.035Z,982.19
2023-02-23T10:45:55.035Z,982.19
2023-02-23T10:46:55.804Z,982.19
2023-02-23T10:47:54.975Z,982.20
2023-02-23T10:48:55.000Z,982.20
2023-02-23T10:49:54.963Z,982.20
2023-02-23T10:50:54.958Z,982.19
2023-02-23T10:51:54.951Z,982.18
2023-02-23T10:52:54.946Z,982.17
2023-02-23T10:53:54.951Z,982.17
2023-02-23T10:54:54.924Z,982.17
2023-02-23T10:55:54.903Z,982.17
2023-02-23T10:56:54.917Z,982.18
2023-02-23T10:57:54.908Z,982.18
2023-02-23T10:58:54.925Z,982.18
2023-02-23T10:59:54.846Z,982.18
2023-02-23T11:00:54.866Z,982.19
2023-02-23T11:02:02.031Z,982.19
2023-02-23T11:02:54.860Z,982.19
2023-02-23T11:04:05.411Z,982.16
2023-02-23T11:04:54.832Z,982.16
2023-02-23T11:05:54.812Z,982.15
2023-02-23T11:06:54.787Z,982.14
2023-02-23T11:07:54.796Z,982.15
2023-02-23T11:08:54.791Z,982.15
2023-02-23T11:09:54.765Z,982.15
2023-02-23T11:10:54.738Z,982.14
2023-02-23T11:11:54.753Z,982.14
2023-02-23T11:12:54.732Z,982.13
2023-02-23T11:13:54.721Z,982.14
2023-02-23T11:14:54.725Z,982.14
2023-02-23T11:15:54.928Z,982.12
2023-02-23T11:16:54.682Z,982.12
2023-02-23T11:17:54.691Z,982.13
2023-02-23T11:18:54.830Z,982.14
2023-02-23T11:19:54.661Z,982.14
2023-02-23T11:20:54.667Z,982.14
2023-02-23T11:21:54.645Z,982.12
2023-02-23T11:22:57.090Z,982.11
2023-02-23T11:23:54.628Z,982.10
2023-02-23T11:24:54.606Z,982.11
2023-02-23T11:25:54.611Z,982.10
2023-02-23T11:26:54.621Z,982.10
2023-02-23T11:27:54.590Z,982.09
2023-02-23T11:28:54.559Z,982.08
2023-02-23T11:29:54.567Z,982.07
2023-02-23T11:30:54.586Z,982.07
2023-02-23T11:31:54.680Z,982.07
2023-02-23T11:32:54.543Z,982.05
2023-02-23T11:33:54.526Z,982.04
2023-02-23T11:34:54.523Z,982.02
2023-02-23T11:35:54.505Z,982.03
2023-02-23T11:36:54.477Z,982.03
2023-02-23T11:37:54.510Z,982.01
2023-02-23T11:38:54.468Z,982.01
2023-02-23T11:39:54.464Z,982.01
2023-02-23T11:40:54.434Z,982.02
2023-02-23T11:41:54.458Z,981.98
2023-02-23T11:42:54.434Z,981.97
2023-02-23T11:43:54.459Z,981.97
2023-02-23T11:44:54.399Z,981.97
2023-02-23T11:45:54.419Z,981.94
2023-02-23T11:46:54.417Z,981.94
2023-02-23T11:47:54.398Z,981.93
2023-02-23T11:48:54.384Z,981.93
2023-02-23T11:49:54.357Z,981.95
2023-02-23T11:50:54.335Z,981.93
2023-02-23T11:51:54.366Z,981.93
2023-02-23T11:52:54.328Z,981.93
2023-02-23T11:53:54.316Z,981.92
2023-02-23T11:54:54.321Z,981.89
2023-02-23T11:55:54.324Z,981.88
2023-02-23T11:56:54.281Z,981.89
2023-02-23T11:57:54.294Z,981.89
2023-02-23T11:58:54.278Z,981.88
2023-02-23T11:59:54.260Z,981.88
2023-02-23T12:00:54.255Z,981.87
2023-02-23T12:01:54.248Z,981.89
2023-02-23T12:02:54.252Z,981.87
2023-02-23T12:03:54.230Z,981.86
2023-02-23T12:04:54.225Z,981.85
2023-02-23T12:05:54.220Z,981.85
2023-02-23T12:06:54.294Z,981.85
2023-02-23T12:07:54.260Z,981.84
2023-02-23T12:08:54.164Z,981.85
2023-02-23T12:09:54.177Z,981.83
2023-02-23T12:10:54.255Z,981.83
2023-02-23T12:11:54.148Z,981.85
2023-02-23T12:12:54.147Z,981.83
2023-02-23T12:13:54.156Z,981.83
2023-02-23T12:14:54.123Z,981.83
2023-02-23T12:15:54.112Z,981.83
2023-02-23T12:16:54.081Z,981.83
2023-02-23T12:17:54.109Z,981.82
2023-02-23T12:18:54.066Z,981.81
2023-02-23T12:19:54.101Z,981.80
2023-02-23T12:20:54.045Z,981.81
2023-02-23T12:21:54.050Z,981.81
2023-02-23T12:22:54.157Z,981.79
2023-02-23T12:23:54.033Z,981.80
2023-02-23T12:24:54.015Z,981.78
2023-02-23T12:25:54.015Z,981.79
2023-02-23T12:26:53.990Z,981.77
2023-02-23T12:27:53.992Z,981.76